Terminal Aerodrome Forecast
Issued by NWS

Home | Current Version | Previous Version | Text Only | Print | Product List | Glossary On
Versions: 1 2 3 4 5 6 7 8 9 10 11 12 13 14 15
895
FTUS46 KLOX 212349
TAFPMD
TAF
KPMD 212349Z 2200/2224 24014G20KT P6SM SKC
     FM220300 23010KT P6SM SKC
     FM220600 20006KT P6SM SKC
     FM221200 VRB04KT P6SM SKC
     FM222200 24012KT P6SM SKC=

USA.gov is the U.S. government's official web portal to all federal, state and local government web resources and services.